createdAt,value
2019-01-16T00:02:30.504Z,17.27
2019-01-16T00:04:58.166Z,25.03
2019-01-16T00:07:36.900Z,21.20
2019-01-16T00:10:09.754Z,19.67
2019-01-16T00:12:42.552Z,21.03
2019-01-16T00:15:12.514Z,17.37
2019-01-16T00:17:46.525Z,22.07
2019-01-16T00:20:19.259Z,15.57
2019-01-16T00:22:53.770Z,20.07
2019-01-16T00:25:36.275Z,16.57
2019-01-16T00:28:06.336Z,24.37
2019-01-16T00:30:39.320Z,25.20
2019-01-16T00:33:21.337Z,26.37
2019-01-16T00:35:51.267Z,27.90
2019-01-16T00:38:30.342Z,20.73
2019-01-16T00:41:15.217Z,26.73
2019-01-16T00:44:01.336Z,22.20
2019-01-16T00:46:37.294Z,26.30
2019-01-16T00:49:07.190Z,17.80
2019-01-16T00:51:37.239Z,17.67
2019-01-16T00:54:07.578Z,19.00
2019-01-16T00:56:37.631Z,19.93
2019-01-16T00:59:14.139Z,21.33
2019-01-16T01:01:44.068Z,21.20
2019-01-16T01:04:14.143Z,26.20
2019-01-16T01:06:49.807Z,29.40
2019-01-16T01:09:22.766Z,27.23
2019-01-16T01:12:08.910Z,22.67
2019-01-16T01:14:55.043Z,22.53
2019-01-16T01:17:28.112Z,25.10
2019-01-16T01:20:03.890Z,21.40
2019-01-16T01:22:36.667Z,23.77
2019-01-16T01:25:07.975Z,26.67
2019-01-16T01:27:47.434Z,20.60
2019-01-16T01:30:17.321Z,22.53
2019-01-16T01:32:47.280Z,25.10
2019-01-16T01:35:33.614Z,27.73
2019-01-16T01:38:19.891Z,19.57
2019-01-16T01:41:08.106Z,28.37
2019-01-16T01:43:50.403Z,23.43
2019-01-16T01:46:26.563Z,19.00
2019-01-16T01:49:05.849Z,25.90
2019-01-16T01:51:41.268Z,22.50
2019-01-16T01:54:17.009Z,24.77
2019-01-16T01:56:58.583Z,21.67
2019-01-16T01:59:44.643Z,22.90
2019-01-16T02:02:17.589Z,19.90
2019-01-16T02:05:04.109Z,25.27
2019-01-16T02:07:51.871Z,24.57
2019-01-16T02:10:26.806Z,21.80
2019-01-16T02:13:08.142Z,28.67
2019-01-16T02:15:39.873Z,30.17
2019-01-16T02:18:12.562Z,21.00
2019-01-16T02:20:42.498Z,18.90
2019-01-16T02:23:12.485Z,23.07
2019-01-16T02:25:54.423Z,24.20
2019-01-16T02:28:33.283Z,24.77
2019-01-16T02:31:18.225Z,20.33
2019-01-16T02:34:04.211Z,29.20
2019-01-16T02:36:46.429Z,22.03
2019-01-16T02:39:21.874Z,19.83
2019-01-16T02:41:51.835Z,23.27
2019-01-16T02:44:31.827Z,23.43
2019-01-16T02:47:11.909Z,26.57
2019-01-16T02:49:44.644Z,27.07
2019-01-16T02:52:25.126Z,15.70
2019-01-16T02:55:12.866Z,22.47
2019-01-16T02:57:45.670Z,25.00
2019-01-16T03:00:15.655Z,18.97
2019-01-16T03:03:01.652Z,18.00
2019-01-16T03:05:37.435Z,21.87
2019-01-16T03:08:07.431Z,21.57
2019-01-16T03:10:37.352Z,16.27
2019-01-16T03:13:18.930Z,22.60
2019-01-16T03:16:03.981Z,15.33
2019-01-16T03:18:36.823Z,27.63
2019-01-16T03:21:09.762Z,17.37
2019-01-16T03:23:44.936Z,26.47
2019-01-16T03:26:24.076Z,17.70
2019-01-16T03:28:56.519Z,17.90
2019-01-16T03:31:35.497Z,18.43
2019-01-16T03:34:14.505Z,11.53
2019-01-16T03:36:53.340Z,17.77
2019-01-16T03:39:29.191Z,14.67
2019-01-16T03:42:03.408Z,12.43
2019-01-16T03:44:51.262Z,18.80
2019-01-16T03:47:30.167Z,17.37
2019-01-16T03:50:15.318Z,16.40
2019-01-16T03:52:47.879Z,14.90
2019-01-16T03:55:26.643Z,17.00
2019-01-16T03:57:56.593Z,11.47
2019-01-16T04:00:31.175Z,12.83
2019-01-16T04:03:13.040Z,13.53
2019-01-16T04:05:46.202Z,15.20
2019-01-16T04:08:30.985Z,14.73
2019-01-16T04:11:06.893Z,18.03
2019-01-16T04:13:49.145Z,13.63
2019-01-16T04:16:31.840Z,16.10
2019-01-16T04:19:07.575Z,14.70
2019-01-16T04:21:39.649Z,13.90
2019-01-16T04:24:15.810Z,20.30
2019-01-16T04:26:51.730Z,13.77
2019-01-16T04:29:27.866Z,23.43
2019-01-16T04:32:09.642Z,14.67
2019-01-16T04:34:55.979Z,12.70
2019-01-16T04:37:31.758Z,10.03
2019-01-16T04:40:17.021Z,14.53
2019-01-16T04:42:46.930Z,26.63
2019-01-16T04:45:25.922Z,16.70
2019-01-16T04:48:11.885Z,16.20
2019-01-16T04:50:42.124Z,17.63
2019-01-16T04:53:12.115Z,12.03
2019-01-16T04:55:57.062Z,15.30
2019-01-16T04:58:42.178Z,12.53
2019-01-16T05:01:20.850Z,14.83
2019-01-16T05:03:54.291Z,14.13
2019-01-16T05:06:26.969Z,15.03
2019-01-16T05:08:56.954Z,8.97
2019-01-16T05:11:26.894Z,17.37
2019-01-16T05:14:04.636Z,25.20
2019-01-16T05:16:50.768Z,9.03
2019-01-16T05:19:23.698Z,17.67
2019-01-16T05:22:02.324Z,13.87
2019-01-16T05:24:38.658Z,11.17
2019-01-16T05:27:08.645Z,15.70
2019-01-16T05:29:50.833Z,12.40
2019-01-16T05:32:33.410Z,13.20
2019-01-16T05:35:19.661Z,12.40
2019-01-16T05:37:49.607Z,14.93
2019-01-16T05:40:31.576Z,11.10
2019-01-16T05:43:01.514Z,9.93
2019-01-16T05:45:52.628Z,12.73
2019-01-16T05:48:25.374Z,15.63
2019-01-16T05:50:58.221Z,14.30
2019-01-16T05:53:40.178Z,16.33
2019-01-16T05:56:25.072Z,11.93
2019-01-16T05:59:10.686Z,12.90
2019-01-16T06:01:40.599Z,12.13
2019-01-16T06:04:16.320Z,14.47
2019-01-16T06:06:47.920Z,13.00
2019-01-16T06:09:20.302Z,13.40
2019-01-16T06:11:50.287Z,12.83
2019-01-16T06:14:31.953Z,9.53
2019-01-16T06:17:14.052Z,11.27
2019-01-16T06:19:44.011Z,8.93
2019-01-16T06:22:13.996Z,15.00
2019-01-16T06:24:43.924Z,9.20
2019-01-16T06:27:22.779Z,8.57
2019-01-16T06:29:52.698Z,10.97
2019-01-16T06:32:28.509Z,11.27
2019-01-16T06:35:14.928Z,13.53
2019-01-16T06:38:03.146Z,10.33
2019-01-16T06:40:33.088Z,24.80
2019-01-16T06:43:07.472Z,12.60
2019-01-16T06:45:49.552Z,9.93
2019-01-16T06:48:22.188Z,14.07
2019-01-16T06:50:57.650Z,14.23
2019-01-16T06:53:39.793Z,9.27
2019-01-16T06:56:12.764Z,11.37
2019-01-16T06:58:51.782Z,13.70
2019-01-16T07:01:27.634Z,16.90
2019-01-16T07:04:00.649Z,11.00
2019-01-16T07:06:40.292Z,16.70
2019-01-16T07:09:16.200Z,11.40
2019-01-16T07:11:51.964Z,15.20
2019-01-16T07:14:38.242Z,15.00
2019-01-16T07:17:11.342Z,17.77
2019-01-16T07:19:47.392Z,15.20
2019-01-16T07:22:17.302Z,15.27
2019-01-16T07:24:50.152Z,14.37
2019-01-16T07:27:32.015Z,18.30
2019-01-16T07:30:01.979Z,21.70
2019-01-16T07:32:40.912Z,21.33
2019-01-16T07:35:22.750Z,19.80
2019-01-16T07:38:07.744Z,25.63
2019-01-16T07:40:53.756Z,22.97
2019-01-16T07:43:29.670Z,20.80
2019-01-16T07:46:02.053Z,24.47
2019-01-16T07:48:32.099Z,22.93
2019-01-16T07:51:07.811Z,21.23
2019-01-16T07:53:43.609Z,23.40
2019-01-16T07:56:13.632Z,23.63
2019-01-16T07:58:55.686Z,19.90
2019-01-16T08:01:25.602Z,21.73
2019-01-16T08:03:55.547Z,20.27
2019-01-16T08:06:25.601Z,27.30
2019-01-16T08:09:01.031Z,19.07
2019-01-16T08:11:49.039Z,24.67
2019-01-16T08:14:18.965Z,22.00
2019-01-16T08:17:00.978Z,21.27
2019-01-16T08:19:45.693Z,22.80
2019-01-16T08:22:24.365Z,24.00
2019-01-16T08:24:54.363Z,22.60
2019-01-16T08:27:26.954Z,20.27
2019-01-16T08:30:09.289Z,19.40
2019-01-16T08:32:55.855Z,22.43
2019-01-16T08:35:31.631Z,23.07
2019-01-16T08:38:04.463Z,20.50
2019-01-16T08:40:40.395Z,19.97
2019-01-16T08:43:23.168Z,22.77
2019-01-16T08:46:03.924Z,22.70
2019-01-16T08:48:40.710Z,22.97
2019-01-16T08:51:22.838Z,24.77
2019-01-16T08:54:04.401Z,25.47
2019-01-16T08:56:34.415Z,22.13
2019-01-16T08:59:21.258Z,27.53
2019-01-16T09:01:51.558Z,27.07
2019-01-16T09:04:40.071Z,31.87
2019-01-16T09:07:18.883Z,25.33
2019-01-16T09:09:48.864Z,28.80
2019-01-16T09:12:35.535Z,28.97
2019-01-16T09:15:10.141Z,30.90
2019-01-16T09:17:45.741Z,28.13
2019-01-16T09:20:31.158Z,27.47
2019-01-16T09:23:03.913Z,31.43
2019-01-16T09:25:39.622Z,26.40
2019-01-16T09:28:21.685Z,31.63
2019-01-16T09:31:03.604Z,27.00
2019-01-16T09:33:42.334Z,31.67
2019-01-16T09:36:12.297Z,33.33
2019-01-16T09:39:01.525Z,29.57
2019-01-16T09:41:40.616Z,37.57
2019-01-16T09:44:15.709Z,38.23
2019-01-16T09:46:50.653Z,34.93
2019-01-16T09:49:23.758Z,34.87
2019-01-16T09:52:16.488Z,36.90
2019-01-16T09:54:58.456Z,35.97
2019-01-16T09:57:28.565Z,32.50
2019-01-16T10:00:08.854Z,28.77
2019-01-16T10:03:02.670Z,33.77
2019-01-16T10:05:39.235Z,31.00
2019-01-16T10:08:18.276Z,28.77
2019-01-16T10:11:08.395Z,28.90
2019-01-16T10:13:47.401Z,28.40
2019-01-16T10:16:20.257Z,26.20
2019-01-16T10:19:10.186Z,25.50
2019-01-16T10:22:01.617Z,27.20
2019-01-16T10:24:51.074Z,34.30
2019-01-16T10:27:44.516Z,26.57
2019-01-16T10:30:37.386Z,27.47
2019-01-16T10:33:13.069Z,30.13
2019-01-16T10:36:09.453Z,35.03
2019-01-16T10:38:52.931Z,29.97
2019-01-16T10:41:39.639Z,29.70
2019-01-16T10:44:27.803Z,25.90
2019-01-16T10:47:01.943Z,33.63
2019-01-16T10:49:38.107Z,27.83
2019-01-16T10:52:08.082Z,28.70
2019-01-16T10:54:47.521Z,25.70
2019-01-16T10:57:17.286Z,31.73
2019-01-16T11:00:03.206Z,28.20
2019-01-16T11:03:04.372Z,27.60
2019-01-16T11:05:49.144Z,21.43
2019-01-16T11:08:22.877Z,26.33
2019-01-16T11:10:55.950Z,26.40
2019-01-16T11:13:55.484Z,29.23
2019-01-16T11:16:36.422Z,24.10
2019-01-16T11:19:15.819Z,23.60
2019-01-16T11:22:08.213Z,30.40
2019-01-16T11:24:49.940Z,24.80
2019-01-16T11:27:27.473Z,22.10
2019-01-16T11:30:16.236Z,20.10
2019-01-16T11:33:15.820Z,16.80
2019-01-16T11:35:59.384Z,17.57
2019-01-16T11:38:50.646Z,18.77
2019-01-16T11:41:41.190Z,14.73
2019-01-16T11:44:20.736Z,16.57
2019-01-16T11:46:56.565Z,19.70
2019-01-16T11:49:47.482Z,13.23
2019-01-16T11:52:25.821Z,15.50
2019-01-16T11:54:59.135Z,11.90
2019-01-16T11:57:33.853Z,14.03
2019-01-16T12:00:08.685Z,17.03
2019-01-16T12:02:47.777Z,15.10
2019-01-16T12:05:17.809Z,17.20
2019-01-16T12:07:47.817Z,11.00
2019-01-16T12:10:29.885Z,12.40
2019-01-16T12:13:11.264Z,14.47
2019-01-16T12:16:00.616Z,13.37
2019-01-16T12:18:41.492Z,20.20
2019-01-16T12:21:30.843Z,13.73
2019-01-16T12:24:07.553Z,13.03
2019-01-16T12:26:43.867Z,13.73
2019-01-16T12:29:31.563Z,13.03
2019-01-16T12:32:13.644Z,11.80
2019-01-16T12:34:46.334Z,11.47
2019-01-16T12:37:22.250Z,9.77
2019-01-16T12:39:58.285Z,14.33
2019-01-16T12:42:40.199Z,13.83
2019-01-16T12:45:10.085Z,9.90
2019-01-16T12:47:49.106Z,9.00
2019-01-16T12:50:38.028Z,9.73
2019-01-16T12:53:08.126Z,10.67
2019-01-16T12:55:57.828Z,16.13
2019-01-16T12:58:33.787Z,12.20
2019-01-16T13:01:12.608Z,10.37
2019-01-16T13:03:42.793Z,13.20
2019-01-16T13:06:30.989Z,9.33
2019-01-16T13:09:16.621Z,11.83
2019-01-16T13:11:52.375Z,11.83
2019-01-16T13:14:33.825Z,11.10
2019-01-16T13:17:21.605Z,10.50
2019-01-16T13:19:54.363Z,10.90
2019-01-16T13:22:36.421Z,7.10
2019-01-16T13:25:12.150Z,12.27
2019-01-16T13:28:01.272Z,8.57
2019-01-16T13:30:38.790Z,13.60
2019-01-16T13:33:08.889Z,11.47
2019-01-16T13:35:38.822Z,10.73
2019-01-16T13:38:08.934Z,9.20
2019-01-16T13:43:39.760Z,12.90
2019-01-16T13:46:17.148Z,14.30
2019-01-16T13:49:05.174Z,15.50
2019-01-16T13:51:34.928Z,11.63
2019-01-16T13:54:07.780Z,18.83
2019-01-16T13:56:55.479Z,15.87
2019-01-16T13:59:38.495Z,14.30
2019-01-16T14:02:20.739Z,15.77
2019-01-16T14:05:10.251Z,19.57
2019-01-16T14:07:35.648Z,16.90
2019-01-16T14:10:26.726Z,13.00
2019-01-16T14:13:05.232Z,13.43
2019-01-16T14:15:42.803Z,16.60
2019-01-16T14:18:23.181Z,12.63
2019-01-16T14:20:57.667Z,29.73
2019-01-16T14:23:27.700Z,21.83
2019-01-16T14:26:16.041Z,15.10
2019-01-16T14:29:16.492Z,15.23
2019-01-16T14:31:49.183Z,18.07
2019-01-16T14:34:35.227Z,23.90
2019-01-16T14:37:26.514Z,15.30
2019-01-16T14:40:12.064Z,18.13
2019-01-16T14:45:40.657Z,18.10
2019-01-16T14:48:31.623Z,18.73
2019-01-16T14:51:04.717Z,17.90
2019-01-16T14:53:37.810Z,23.10
2019-01-16T14:56:39.244Z,19.60
2019-01-16T15:05:41.913Z,19.50
2019-01-16T15:08:25.272Z,25.70
2019-01-16T15:11:01.438Z,19.70
2019-01-16T15:13:34.518Z,21.63
2019-01-16T15:16:12.580Z,19.40
2019-01-16T15:19:00.710Z,20.23
2019-01-16T15:21:36.403Z,23.40
2019-01-16T15:24:11.544Z,26.17
2019-01-16T15:26:39.108Z,19.40
2019-01-16T15:29:16.825Z,21.17
2019-01-16T15:31:44.124Z,23.60
2019-01-16T15:34:26.218Z,24.83
2019-01-16T15:37:00.614Z,22.80
2019-01-16T15:39:48.862Z,18.23
2019-01-16T15:42:37.513Z,21.77
2019-01-16T15:45:14.496Z,20.33
2019-01-16T15:47:44.636Z,20.00
2019-01-16T15:50:20.564Z,19.50
2019-01-16T15:52:53.394Z,16.03
2019-01-16T15:55:35.683Z,16.20
2019-01-16T15:58:08.216Z,14.67
2019-01-16T16:00:38.379Z,13.53
2019-01-16T16:03:17.210Z,30.53
2019-01-16T16:06:03.225Z,19.30
2019-01-16T16:08:33.241Z,14.97
2019-01-16T16:11:15.152Z,13.57
2019-01-16T16:13:48.151Z,18.30
2019-01-16T16:16:30.213Z,16.43
2019-01-16T16:19:15.570Z,21.27
2019-01-16T16:21:45.715Z,16.27
2019-01-16T16:24:32.124Z,13.70
2019-01-16T16:27:10.011Z,18.90
2019-01-16T16:29:46.414Z,17.17
2019-01-16T16:32:31.318Z,13.57
2019-01-16T16:35:01.357Z,16.23
2019-01-16T16:37:31.378Z,14.47
2019-01-16T16:40:19.768Z,14.43
2019-01-16T16:42:55.309Z,19.43
2019-01-16T16:45:40.719Z,13.60
2019-01-16T16:48:19.658Z,15.97
2019-01-16T16:50:58.167Z,13.30
2019-01-16T16:53:44.391Z,13.90
2019-01-16T16:56:22.257Z,16.83
2019-01-16T16:59:08.398Z,17.23
2019-01-16T17:01:44.223Z,26.20
2019-01-16T17:04:14.216Z,17.30
2019-01-16T17:06:46.686Z,19.83
2019-01-16T17:09:28.488Z,21.30
2019-01-16T17:12:16.442Z,19.00
2019-01-16T17:15:01.211Z,30.97
2019-01-16T17:17:32.933Z,31.63
2019-01-16T17:20:09.022Z,47.33
2019-01-16T17:22:47.966Z,27.73
2019-01-16T17:25:29.772Z,40.83
2019-01-16T17:28:17.582Z,32.40
2019-01-16T17:31:03.869Z,24.83
2019-01-16T17:33:33.816Z,24.80
2019-01-16T17:36:03.774Z,34.20
2019-01-16T17:38:42.369Z,26.53
2019-01-16T17:41:18.231Z,29.47
2019-01-16T17:43:48.239Z,20.40
2019-01-16T17:46:33.339Z,25.13
2019-01-16T17:49:12.199Z,20.47
2019-01-16T17:51:58.345Z,12.37
2019-01-16T17:54:34.231Z,24.17
2019-01-16T17:57:20.523Z,25.67
2019-01-16T18:00:06.609Z,16.47
2019-01-16T18:02:39.607Z,22.20
2019-01-16T18:05:25.958Z,19.93
2019-01-16T18:07:58.868Z,23.93
2019-01-16T18:10:42.098Z,15.70
2019-01-16T18:13:14.579Z,18.00
2019-01-16T18:15:44.961Z,17.50
2019-01-16T18:18:23.790Z,15.63
2019-01-16T18:21:05.597Z,19.43
2019-01-16T18:23:51.739Z,14.40
2019-01-16T18:26:24.116Z,18.70
2019-01-16T18:29:06.082Z,17.63
2019-01-16T18:31:45.004Z,20.13
2019-01-16T18:34:18.031Z,11.40
2019-01-16T18:36:56.925Z,20.47
2019-01-16T18:39:43.026Z,21.80
2019-01-16T18:42:31.287Z,19.80
2019-01-16T18:45:02.660Z,22.63
2019-01-16T18:47:41.831Z,23.03
2019-01-16T18:50:14.374Z,13.63
2019-01-16T18:52:44.334Z,15.77
2019-01-16T18:55:23.326Z,26.87
2019-01-16T18:58:05.221Z,16.87
2019-01-16T19:00:47.409Z,25.47
2019-01-16T19:03:17.340Z,20.20
2019-01-16T19:05:53.188Z,12.73
2019-01-16T19:08:25.929Z,18.33
2019-01-16T19:10:59.464Z,19.60
2019-01-16T19:13:29.607Z,16.93
2019-01-16T19:16:00.206Z,14.23
2019-01-16T19:18:52.743Z,15.63
2019-01-16T19:21:25.627Z,23.17
2019-01-16T19:24:01.531Z,20.10
2019-01-16T19:26:31.488Z,25.30
2019-01-16T19:29:13.928Z,20.47
2019-01-16T19:31:43.870Z,18.33
2019-01-16T19:34:13.835Z,16.00
2019-01-16T19:36:49.600Z,16.53
2019-01-16T19:39:35.936Z,17.63
2019-01-16T19:42:09.650Z,20.03
2019-01-16T19:44:42.477Z,20.13
2019-01-16T19:47:28.593Z,16.47
2019-01-16T19:50:04.010Z,30.43
2019-01-16T19:52:48.876Z,24.63
2019-01-16T19:55:35.529Z,20.30
2019-01-16T19:58:11.552Z,22.00
2019-01-16T20:00:57.829Z,22.80
2019-01-16T20:03:33.551Z,20.73
2019-01-16T20:06:15.384Z,30.00
2019-01-16T20:08:51.351Z,22.37
2019-01-16T20:11:26.900Z,25.33
2019-01-16T20:14:13.343Z,19.13
2019-01-16T20:16:46.137Z,19.97
2019-01-16T20:19:31.258Z,28.93
2019-01-16T20:22:01.417Z,23.40
2019-01-16T20:24:46.346Z,32.20
2019-01-16T20:27:16.707Z,30.03
2019-01-16T20:29:46.662Z,35.53
2019-01-16T20:32:22.633Z,33.97
2019-01-16T20:35:09.981Z,40.50
2019-01-16T20:37:45.888Z,34.07
2019-01-16T20:40:21.617Z,49.80
2019-01-16T20:42:51.610Z,37.43
2019-01-16T20:45:21.496Z,36.23
2019-01-16T20:47:51.404Z,23.13
2019-01-16T20:50:21.467Z,26.57
2019-01-16T20:52:51.367Z,28.90
2019-01-16T20:55:37.763Z,24.67
2019-01-16T20:58:23.543Z,33.63
2019-01-16T21:00:59.647Z,28.43
2019-01-16T21:03:32.095Z,23.13
2019-01-16T21:06:18.105Z,29.57
2019-01-16T21:08:57.171Z,34.07
2019-01-16T21:11:27.115Z,31.47
2019-01-16T21:13:57.153Z,25.80
2019-01-16T21:16:29.788Z,30.43
2019-01-16T21:19:00.028Z,34.30
2019-01-16T21:21:45.987Z,30.40
2019-01-16T21:24:15.961Z,38.80
2019-01-16T21:26:51.434Z,24.23
2019-01-16T21:29:23.948Z,29.60
2019-01-16T21:32:10.795Z,33.13
2019-01-16T21:34:43.253Z,30.70
2019-01-16T21:37:13.172Z,37.97
2019-01-16T21:39:59.376Z,32.10
2019-01-16T21:42:45.781Z,33.53
2019-01-16T21:45:30.729Z,30.93
2019-01-16T21:48:06.587Z,35.60
2019-01-16T21:50:39.195Z,35.97
2019-01-16T21:53:11.752Z,34.30
2019-01-16T21:55:41.758Z,37.30
2019-01-16T21:58:28.014Z,40.40
2019-01-16T22:01:00.720Z,41.47
2019-01-16T22:03:36.362Z,38.23
2019-01-16T22:06:12.260Z,36.47
2019-01-16T22:08:57.104Z,43.07
2019-01-16T22:11:43.027Z,41.53
2019-01-16T22:14:31.105Z,35.43
2019-01-16T22:17:04.355Z,50.07
2019-01-16T22:19:34.281Z,36.40
2019-01-16T22:22:04.234Z,43.57
2019-01-16T22:24:36.668Z,51.00
2019-01-16T22:27:12.469Z,37.47
2019-01-16T22:29:45.048Z,45.43
2019-01-16T22:32:20.734Z,36.73
2019-01-16T22:34:50.675Z,53.57
2019-01-16T22:37:38.885Z,44.37
2019-01-16T22:40:26.625Z,37.67
2019-01-16T22:42:56.569Z,35.47
2019-01-16T22:45:42.845Z,37.70
2019-01-16T22:48:24.773Z,42.17
2019-01-16T22:51:00.436Z,33.40
2019-01-16T22:53:33.203Z,36.40
2019-01-16T22:56:03.530Z,33.87
2019-01-16T22:58:42.181Z,38.73
2019-01-16T23:01:12.703Z,37.67
2019-01-16T23:03:54.559Z,39.97
2019-01-16T23:06:40.363Z,31.77
2019-01-16T23:09:27.185Z,34.23
2019-01-16T23:11:57.353Z,35.50
2019-01-16T23:14:36.756Z,30.73
2019-01-16T23:17:06.640Z,24.37
2019-01-16T23:19:36.615Z,7.63
2019-01-16T23:22:21.356Z,5.10
2019-01-16T23:24:53.997Z,6.03
2019-01-16T23:27:26.660Z,2.20
2019-01-16T23:29:59.160Z,2.70
2019-01-16T23:32:29.156Z,3.10
2019-01-16T23:35:14.046Z,3.87
2019-01-16T23:38:00.398Z,4.40
2019-01-16T23:40:33.211Z,3.83
2019-01-16T23:43:09.546Z,3.10
2019-01-16T23:45:42.380Z,3.00
2019-01-16T23:48:12.332Z,3.90
2019-01-16T23:50:42.306Z,2.10
2019-01-16T23:53:14.701Z,2.80
2019-01-16T23:55:53.767Z,2.70
2019-01-16T23:58:38.820Z,1.90
